This is the latest recevied weather packets stored in our database for station/object K4IR. If no packets are shown the sender has not sent any weather packets the latest 10 day(s).
| Time | Temp. | Humidity | Pressure | Rain* | Wind** | Luminosity | Snow |
|---|---|---|---|---|---|---|---|
| 1777861334 | 10° C | 91% | 1018.9 hPa | 0 mm | - | 0 W/m² | - |
| 1777860734 | 10° C | 91% | 1018.8 hPa | 0 mm | - | 0 W/m² | - |
| 1777860134 | 10° C | 90% | 1018.5 hPa | 0 mm | - | 0 W/m² | - |
| 1777859532 | 10° C | 90% | 1018.5 hPa | 0 mm | - | 0 W/m² | - |
| 1777858931 | 10° C | 89% | 1018.5 hPa | 0 mm | - | 0 W/m² | - |
| 1777858332 | 10.56° C | 88% | 1018.2 hPa | 0 mm | - | 0 W/m² | - |
| 1777857726 | 11.11° C | 87% | 1018.2 hPa | 0 mm | - | 0 W/m² | - |
| 1777857125 | 11.11° C | 86% | 1018 hPa | 0 mm | - | 0 W/m² | - |
| 1777856523 | 11.11° C | 84% | 1018.1 hPa | 0 mm | - | 0 W/m² | - |
| 1777855923 | 11.67° C | 83% | 1017.8 hPa | 0 mm | - | 0 W/m² | - |
| 1777855317 | 12.22° C | 83% | 1017.8 hPa | 0 mm | - | 0 W/m² | - |
| 1777854717 | 12.22° C | 81% | 1017.8 hPa | 0 mm | - | 0 W/m² | - |
| 1777854116 | 12.78° C | 77% | 1017.6 hPa | 0 mm | - | 0 W/m² | - |
| 1777853516 | 13.33° C | 75% | 1017.4 hPa | 0 mm | - | 0 W/m² | - |
| 1777852916 | 13.89° C | 73% | 1017.6 hPa | 0 mm | - | 2 W/m² | - |
| 1777852311 | 14.44° C | 71% | 1017.3 hPa | 0 mm | - | 5 W/m² | - |
| 1777851707 | 15° C | 68% | 1017.1 hPa | 0 mm | - | 10 W/m² | - |
| 1777851105 | 15.56° C | 65% | 1016.8 hPa | 0 mm | - | 16 W/m² | - |
| 1777850505 | 16.11° C | 62% | 1016.9 hPa | 0 mm | - | 22 W/m² | - |
| 1777849905 | 16.67° C | 58% | 1016.7 hPa | 0 mm | - | 27 W/m² | - |
| 1777849305 | 16.67° C | 59% | 1016.7 hPa | 0 mm | - | 30 W/m² | - |
| 1777848702 | 17.22° C | 57% | 1016.8 hPa | 0 mm | - | 34 W/m² | - |
| 1777848097 | 17.78° C | 55% | 1016.8 hPa | 0 mm | - | 39 W/m² | - |
| 1777847497 | 18.33° C | 52% | 1016.7 hPa | 0 mm | - | 66 W/m² | - |
| 1777846892 | 18.33° C | 52% | 1017 hPa | 0 mm | - | 119 W/m² | - |
* Rain latest hour (hover to see other rain measurements)
** Current wind speed in m/s (hover to see current wind gust speed)